Time;durP1;ratioP1;P1;durP2;ratioP2;P2;SDS_P1;SDS_P2;PMS_P1;PMS_P2;Temp;Humidity;BMP_temperature;BMP_pressure;BME280_temperature;BME280_humidity;BME280_pressure;Samples;Min_cycle;Max_cycle;Signal;HPM_P1;HPM_P2
2021/06/29 00:02:43;;;;;;;;;;;;;;;13.06;100.00;100543.50;5131642;27;20393;-76
2021/06/29 00:05:20;;;;;;;;;;;;;;;12.99;100.00;100549.13;4447278;27;19302693;-76
2021/06/29 00:08:16;;;;;;;;;;;;;;;13.02;100.00;100545.53;5109698;27;20420;-76
2021/06/29 00:11:24;;;;;;;;;;;;;;;13.00;100.00;100559.97;5056092;28;19920;-76
2021/06/29 00:14:35;;;;;;;;;;;;;;;12.84;100.00;100558.78;5149598;27;19937;-76
2021/06/29 00:17:39;;;;;;;;;;;;;;;12.73;100.00;100565.22;5149443;27;20339;-76
2021/06/29 00:20:34;;;;;;;;;;;;;;;12.74;100.00;100555.59;5131932;27;19919;-76
2021/06/29 00:23:37;;;;;;;;;;;;;;;12.86;100.00;100570.41;5131706;27;20020;-76
2021/06/29 00:26:32;;;;;;;;;;;;;;;12.92;100.00;100583.59;5131590;27;19919;-76
2021/06/29 00:29:36;;;;;;;;;;;;;;;12.99;100.00;100594.03;5008041;28;20023;-76
2021/06/29 00:32:44;;;;;;;;;;;;;;;13.08;100.00;100600.03;5108399;27;20398;-76
2021/06/29 00:35:43;;;;;;;;;;;;;;;13.12;100.00;100612.06;5123514;27;19925;-75
2021/06/29 00:38:38;;;;;;;;;;;;;;;13.09;100.00;100608.06;5173446;27;19957;-78
2021/06/29 00:41:34;;;;;;;;;;;;;;;12.98;100.00;100604.44;5173000;27;19919;-78
2021/06/29 00:44:30;;;;;;;;;;;;;;;12.75;100.00;100590.84;5109073;27;19931;-76
2021/06/29 00:47:26;;;;;;;;;;;;;;;12.66;100.00;100593.25;5131687;27;19922;-76
2021/06/29 00:50:21;;;;;;;;;;;;;;;12.71;100.00;100586.44;5131349;27;19974;-76
2021/06/29 00:53:32;;;;;;;;;;;;;;;12.65;100.00;100588.84;5108335;27;19992;-76
2021/06/29 00:56:46;;;;;;;;;;;;;;;12.64;100.00;100589.25;5130227;27;19966;-76
2021/06/29 00:59:43;;;;;;;;;;;;;;;12.70;100.00;100596.88;5172956;27;20331;-76
2021/06/29 01:02:42;;;;;;;;;;;;;;;12.77;100.00;100602.47;5106261;27;20403;-77
2021/06/29 01:05:40;;;;;;;;;;;;;;;12.83;100.00;100604.88;5173011;27;19941;-77
2021/06/29 01:08:38;;;;;;;;;;;;;;;12.93;100.00;100623.69;5173155;27;19917;-76
2021/06/29 01:11:34;;;;;;;;;;;;;;;12.94;100.00;100628.09;5173184;27;19918;-76
2021/06/29 01:14:30;;;;;;;;;;;;;;;12.94;100.00;100625.28;5172851;27;19917;-76
2021/06/29 01:17:31;;;;;;;;;;;;;;;12.91;100.00;100631.69;4969227;28;20408;-76
2021/06/29 01:20:35;;;;;;;;;;;;;;;12.89;100.00;100639.72;5108561;27;19971;-76
2021/06/29 01:23:51;;;;;;;;;;;;;;;12.81;100.00;100629.72;5067961;28;19943;-76
2021/06/29 01:32:40;;;;;;;;;;;;;;;12.55;100.00;100633.72;5163892;27;19918;-76
2021/06/29 01:35:37;;;;;;;;;;;;;;;12.60;100.00;100638.94;5134995;27;19923;-76
2021/06/29 01:38:37;;;;;;;;;;;;;;;12.63;100.00;100635.31;5106448;27;19928;-76
2021/06/29 01:41:34;;;;;;;;;;;;;;;12.73;100.00;100638.13;5173002;27;20397;-76
2021/06/29 01:44:33;;;;;;;;;;;;;;;12.70;100.00;100650.16;5131688;27;19934;-76
2021/06/29 01:47:50;;;;;;;;;;;;;;;12.74;100.00;100656.56;5131572;27;20004;-76
2021/06/29 01:50:48;;;;;;;;;;;;;;;12.82;100.00;100639.72;5173267;27;19918;-76
2021/06/29 01:53:53;;;;;;;;;;;;;;;12.81;100.00;100647.34;5008594;28;19952;-76
2021/06/29 01:56:50;;;;;;;;;;;;;;;12.96;100.00;100642.53;5131471;27;20369;-76
2021/06/29 01:59:56;;;;;;;;;;;;;;;12.77;100.00;100633.31;5108670;27;19916;-76
2021/06/29 02:02:52;;;;;;;;;;;;;;;12.61;100.00;100616.09;5116892;27;19985;-76
2021/06/29 02:05:48;;;;;;;;;;;;;;;12.40;100.00;100593.63;5109701;27;19923;-76
2021/06/29 02:08:45;;;;;;;;;;;;;;;12.29;100.00;100592.84;5156151;27;20402;-78
2021/06/29 02:11:43;;;;;;;;;;;;;;;12.17;100.00;100584.81;5113058;27;20413;-79
2021/06/29 02:14:41;;;;;;;;;;;;;;;12.11;100.00;100580.81;5112853;27;20299;-78
2021/06/29 02:17:36;;;;;;;;;;;;;;;12.12;100.00;100579.59;5111978;27;19956;-75
2021/06/29 02:20:33;;;;;;;;;;;;;;;12.16;100.00;100583.19;5152807;27;19983;-76
2021/06/29 02:23:28;;;;;;;;;;;;;;;12.25;100.00;100591.22;5156336;27;19918;-79
2021/06/29 02:26:26;;;;;;;;;;;;;;;12.38;100.00;100589.63;5027089;28;19924;-75
2021/06/29 02:29:23;;;;;;;;;;;;;;;12.40;100.00;100599.22;5035672;28;20399;-76
2021/06/29 02:32:18;;;;;;;;;;;;;;;12.41;100.00;100586.84;5112126;27;20309;-75
2021/06/29 02:35:14;;;;;;;;;;;;;;;12.32;100.00;100586.44;5112883;27;19943;-76
2021/06/29 02:38:11;;;;;;;;;;;;;;;12.31;100.00;100596.03;5158462;27;19918;-76
2021/06/29 02:41:07;;;;;;;;;;;;;;;12.29;100.00;100592.03;5131242;27;20366;-76
2021/06/29 02:44:03;;;;;;;;;;;;;;;12.32;100.00;100602.44;5131706;27;19923;-76
2021/06/29 02:47:00;;;;;;;;;;;;;;;12.30;100.00;100604.84;5173388;27;19918;-75
2021/06/29 02:49:55;;;;;;;;;;;;;;;12.21;100.00;100599.63;5173047;27;20384;-76
2021/06/29 02:52:51;;;;;;;;;;;;;;;12.13;100.00;100598.00;5173259;27;19918;-76
2021/06/29 02:56:00;;;;;;;;;;;;;;;12.09;100.00;100600.00;5108234;27;20310;-76
2021/06/29 02:58:59;;;;;;;;;;;;;;;11.97;100.00;100600.38;5106161;27;19959;-76
2021/06/29 03:01:55;;;;;;;;;;;;;;;11.95;100.00;100601.97;5109684;27;19923;-76
2021/06/29 03:04:57;;;;;;;;;;;;;;;12.06;100.00;100598.00;5149573;27;19940;-78
2021/06/29 03:08:07;;;;;;;;;;;;;;;12.10;100.00;100612.81;5077342;28;20050;-76
2021/06/29 03:11:02;;;;;;;;;;;;;;;12.11;100.00;100613.63;5129215;27;20400;-78
2021/06/29 03:13:57;;;;;;;;;;;;;;;12.07;100.00;100612.81;5077538;28;19923;-76
2021/06/29 03:17:09;;;;;;;;;;;;;;;12.13;100.00;100622.44;5131355;27;19935;-78
2021/06/29 03:20:14;;;;;;;;;;;;;;;12.14;100.00;100629.63;5036326;28;20060;-75
2021/06/29 03:23:11;;;;;;;;;;;;;;;12.04;100.00;100616.41;5172470;27;19918;-78
2021/06/29 03:26:12;;;;;;;;;;;;;;;11.96;100.00;100607.19;5108297;27;20482;-75
2021/06/29 03:29:09;;;;;;;;;;;;;;;11.82;100.00;100603.53;5172923;27;19937;-75
2021/06/29 03:31:45;;;;;;;;;;;;;;;11.87;100.00;100609.56;4552798;27;15759560;-75
2021/06/29 03:34:52;;;;;;;;;;;;;;;11.94;100.00;100603.16;5149417;27;19955;-78
2021/06/29 03:37:53;;;;;;;;;;;;;;;11.89;100.00;100617.56;5149326;27;20415;-75
2021/06/29 03:41:03;;;;;;;;;;;;;;;11.87;100.00;100620.75;5108408;27;19963;-75
2021/06/29 03:43:58;;;;;;;;;;;;;;;11.89;100.00;100623.16;5130060;27;19923;-75
2021/06/29 03:46:55;;;;;;;;;;;;;;;11.85;100.00;100623.16;5173032;27;19930;-75
2021/06/29 03:49:50;;;;;;;;;;;;;;;11.79;100.00;100618.31;5173545;27;19918;-75
2021/06/29 03:52:46;;;;;;;;;;;;;;;11.70;100.00;100613.09;5050353;28;19940;-75
2021/06/29 03:55:42;;;;;;;;;;;;;;;11.72;100.00;100621.88;5131418;27;19964;-75
2021/06/29 03:58:37;;;;;;;;;;;;;;;11.97;100.00;100636.78;5131469;27;20373;-78
2021/06/29 04:01:34;;;;;;;;;;;;;;;11.97;100.00;100636.78;5030553;28;19924;-75
2021/06/29 04:04:31;;;;;;;;;;;;;;;11.98;100.00;100638.38;5173242;27;19918;-78
2021/06/29 04:07:31;;;;;;;;;;;;;;;12.02;100.00;100650.44;5106103;27;19936;-78
2021/06/29 04:10:28;;;;;;;;;;;;;;;12.00;100.00;100658.41;5172976;27;19922;-75
2021/06/29 04:13:23;;;;;;;;;;;;;;;11.98;100.00;100666.41;5173165;27;19934;-75
2021/06/29 04:16:20;;;;;;;;;;;;;;;12.01;100.00;100667.63;5173160;27;19917;-75
2021/06/29 04:19:16;;;;;;;;;;;;;;;12.08;100.00;100676.88;5173021;27;20522;-75
2021/06/29 04:22:14;;;;;;;;;;;;;;;12.16;100.00;100688.91;5173014;27;19917;-75
2021/06/29 04:25:12;;;;;;;;;;;;;;;12.20;100.00;100701.72;5173136;27;19919;-78
2021/06/29 04:28:08;;;;;;;;;;;;;;;12.14;100.00;100700.50;5131703;27;19919;-76
2021/06/29 04:31:07;;;;;;;;;;;;;;;12.26;100.00;100705.75;5082822;27;19970;-75
2021/06/29 04:34:04;;;;;;;;;;;;;;;12.23;100.00;100706.53;5164716;27;19971;-78
2021/06/29 04:37:14;;;;;;;;;;;;;;;12.29;100.00;100688.13;5102235;27;19974;-76
2021/06/29 04:40:14;;;;;;;;;;;;;;;12.32;100.00;100687.34;5092955;28;19923;-75
2021/06/29 04:43:10;;;;;;;;;;;;;;;12.41;100.00;100684.97;5131498;27;20290;-75
2021/06/29 04:46:15;;;;;;;;;;;;;;;12.49;100.00;100692.19;5088004;27;19923;-76
2021/06/29 04:49:08;;;;;;;;;;;;;;;12.48;100.00;100690.56;5111016;27;19916;-75
2021/06/29 04:52:04;;;;;;;;;;;;;;;12.58;100.00;100700.22;5131470;27;20374;-76
2021/06/29 04:55:02;;;;;;;;;;;;;;;12.57;100.00;100704.22;5173174;27;20330;-76
2021/06/29 04:57:58;;;;;;;;;;;;;;;12.59;100.00;100707.41;5132158;27;19918;-76
2021/06/29 05:00:55;;;;;;;;;;;;;;;12.75;100.00;100722.66;5173148;27;19922;-76
2021/06/29 05:03:51;;;;;;;;;;;;;;;12.70;100.00;100725.88;5173149;27;20409;-76
2021/06/29 05:06:49;;;;;;;;;;;;;;;12.68;100.00;100728.28;5086288;27;19916;-75
2021/06/29 05:09:48;;;;;;;;;;;;;;;12.83;100.00;100729.09;5106523;27;19924;-75
2021/06/29 05:12:48;;;;;;;;;;;;;;;12.80;100.00;100723.50;5173332;27;19918;-76
2021/06/29 05:15:41;;;;;;;;;;;;;;;12.75;100.00;100714.25;5132982;27;19917;-76
2021/06/29 05:18:43;;;;;;;;;;;;;;;12.72;100.00;100720.66;5088455;28;19924;-76
2021/06/29 05:21:39;;;;;;;;;;;;;;;12.55;100.00;100715.84;5111235;27;19916;-76
2021/06/29 05:24:32;;;;;;;;;;;;;;;12.63;100.00;100713.84;5109410;27;19924;-76
2021/06/29 05:27:25;;;;;;;;;;;;;;;12.63;100.00;100717.44;5097941;27;19917;-75
2021/06/29 05:30:22;;;;;;;;;;;;;;;12.71;100.00;100710.66;5153394;27;19970;-76
2021/06/29 05:32:59;;;;;;;;;;;;;;;12.76;100.00;100731.88;4477035;27;19327106;-76
2021/06/29 05:36:05;;;;;;;;;;;;;;;12.77;100.00;100731.50;5104177;27;19923;-76
2021/06/29 05:39:01;;;;;;;;;;;;;;;12.84;100.00;100729.91;5092725;27;20490;-76
2021/06/29 05:41:58;;;;;;;;;;;;;;;12.89;100.00;100737.94;5172932;27;19970;-75
2021/06/29 05:45:03;;;;;;;;;;;;;;;12.83;100.00;100740.31;5104191;27;19957;-75
2021/06/29 05:52:12;;;;;;;;;;;;;;;12.93;100.00;100752.75;5132536;27;19916;-76
2021/06/29 05:54:49;;;;;;;;;;;;;;;13.00;100.00;100749.97;4103525;27;27697631;-76
2021/06/29 05:57:45;;;;;;;;;;;;;;;13.15;100.00;100760.00;5158503;27;19918;-76
2021/06/29 06:00:41;;;;;;;;;;;;;;;13.30;100.00;100764.44;5134751;27;19922;-76
2021/06/29 06:03:39;;;;;;;;;;;;;;;13.41;100.00;100771.66;5169079;27;19918;-75
2021/06/29 06:06:35;;;;;;;;;;;;;;;13.53;100.00;100767.63;5169092;27;19917;-75
2021/06/29 06:09:28;;;;;;;;;;;;;;;13.62;100.00;100776.44;5133054;27;19917;-76
2021/06/29 06:12:25;;;;;;;;;;;;;;;13.66;100.00;100777.25;5173106;27;19918;-76
2021/06/29 06:15:33;;;;;;;;;;;;;;;13.85;100.00;100799.28;5149714;27;19950;-76
2021/06/29 06:18:31;;;;;;;;;;;;;;;14.39;100.00;100816.44;5123266;27;19916;-79
2021/06/29 06:21:28;;;;;;;;;;;;;;;14.61;100.00;100834.03;5131490;27;19919;-75
2021/06/29 06:24:38;;;;;;;;;;;;;;;15.03;100.00;100845.06;4988647;28;20369;-75
2021/06/29 06:27:34;;;;;;;;;;;;;;;15.59;100.00;100855.97;5131751;27;19919;-73
2021/06/29 06:30:32;;;;;;;;;;;;;;;15.52;100.00;100860.84;5003232;28;20055;-75
2021/06/29 06:33:28;;;;;;;;;;;;;;;15.54;100.00;100864.06;5106286;27;19923;-75
2021/06/29 06:36:16;;;;;;;;;;;;;;;15.94;100.00;100864.13;4102631;27;27758199;-75
2021/06/29 06:39:12;;;;;;;;;;;;;;;16.00;100.00;100859.63;5154035;27;19923;-76
2021/06/29 06:42:11;;;;;;;;;;;;;;;16.13;100.00;100855.06;5088865;27;19969;-76
2021/06/29 06:45:09;;;;;;;;;;;;;;;16.03;100.00;100829.78;5154510;27;19925;-75
2021/06/29 06:48:01;;;;;;;;;;;;;;;16.39;100.00;100818.94;5101397;27;19917;-76
2021/06/29 06:50:38;;;;;;;;;;;;;;;16.49;100.00;100807.53;4463049;27;19438652;-76
2021/06/29 06:53:32;;;;;;;;;;;;;;;17.05;100.00;100801.13;5095070;27;20275;-75
2021/06/29 06:56:28;;;;;;;;;;;;;;;17.87;100.00;101231.28;5120799;27;19919;-75
2021/06/29 06:59:52;;;;;;;;;;;;;;;19.69;100.00;102153.28;5122506;27;19998;-76
2021/06/29 07:03:03;;;;;;;;;;;;;;;20.06;100.00;102021.28;5137314;27;19916;-76
2021/06/29 07:05:40;;;;;;;;;;;;;;;20.74;100.00;101937.84;4466633;27;19304970;-75
2021/06/29 07:08:37;;;;;;;;;;;;;;;20.19;100.00;101784.72;5092586;27;19923;-76
2021/06/29 07:11:34;;;;;;;;;;;;;;;19.55;100.00;101614.44;5158179;27;19918;-76
2021/06/29 07:14:30;;;;;;;;;;;;;;;18.22;100.00;101417.59;5169831;27;19922;-78
2021/06/29 07:17:26;;;;;;;;;;;;;;;17.62;100.00;101275.94;5165160;27;19971;-75
2021/06/29 07:20:23;;;;;;;;;;;;;;;17.46;100.00;101185.28;5076490;28;19997;-75
2021/06/29 07:23:00;;;;;;;;;;;;;;;17.07;100.00;101103.69;5080896;27;2006753;-75
2021/06/29 07:25:40;;;;;;;;;;;;;;;17.03;100.00;101052.09;5151827;27;19961;-75
2021/06/29 07:28:18;;;;;;;;;;;;;;;16.68;100.00;100978.25;5073252;28;19967;-76
2021/06/29 07:30:57;;;;;;;;;;;;;;;15.82;100.00;100873.09;5151625;27;19941;-76
2021/06/29 07:33:38;;;;;;;;;;;;;;;15.72;100.00;100831.69;5091299;27;19912;-76
2021/06/29 07:36:16;;;;;;;;;;;;;;;15.30;100.00;100774.88;5097833;27;19916;-76
2021/06/29 07:38:55;;;;;;;;;;;;;;;15.38;100.00;100726.56;5138997;27;19915;-76
2021/06/29 07:41:34;;;;;;;;;;;;;;;15.21;100.00;100640.19;5146544;27;20374;-76
2021/06/29 07:44:22;;;;;;;;;;;;;;;14.90;100.00;100452.72;5041023;27;2010521;-77
2021/06/29 07:47:01;;;;;;;;;;;;;;;14.93;100.00;100435.00;5071615;28;19916;-77
2021/06/29 07:49:42;;;;;;;;;;;;;;;14.94;100.00;100402.81;5098086;27;19916;-77
2021/06/29 07:52:22;;;;;;;;;;;;;;;15.06;100.00;100146.09;5084098;28;19916;-77
2021/06/29 07:55:06;;;;;;;;;;;;;;;15.20;100.00;100134.63;5075835;28;19913;-76
2021/06/29 07:57:57;;;;;;;;;;;;;;;15.25;100.00;100108.75;5110097;27;19916;-77
2021/06/29 08:00:36;;;;;;;;;;;;;;;15.60;100.00;100102.47;5110348;27;20325;-76
2021/06/29 08:03:15;;;;;;;;;;;;;;;15.66;100.00;100083.06;5089955;28;19912;-76
2021/06/29 08:05:54;;;;;;;;;;;;;;;15.37;100.00;100043.38;5110301;27;19912;-76
2021/06/29 08:08:33;;;;;;;;;;;;;;;15.51;100.00;100037.47;5090030;28;19913;-76
2021/06/29 08:11:12;;;;;;;;;;;;;;;15.32;100.00;100020.56;5110203;27;19981;-76
2021/06/29 08:13:49;;;;;;;;;;;;;;;15.22;100.00;100005.44;5069997;27;2000510;-75
2021/06/29 08:16:25;;;;;;;;;;;;;;;15.60;100.00;100014.38;5058462;27;2013603;-75
2021/06/29 08:19:04;;;;;;;;;;;;;;;15.03;100.00;99994.97;5090042;28;19912;-75
2021/06/29 08:21:44;;;;;;;;;;;;;;;14.81;100.00;99993.00;5090018;28;19916;-75
2021/06/29 08:24:37;;;;;;;;;;;;;;;14.86;100.00;99990.47;5110008;27;19915;-78
2021/06/29 08:27:15;;;;;;;;;;;;;;;14.99;100.00;99990.66;5110161;27;19920;-75
2021/06/29 08:29:56;;;;;;;;;;;;;;;15.18;100.00;99968.13;5110249;27;19957;-75
2021/06/29 08:32:37;;;;;;;;;;;;;;;15.36;100.00;99962.13;5089979;28;19912;-75
2021/06/29 08:35:16;;;;;;;;;;;;;;;15.22;100.00;99951.97;5090469;27;19916;-75
2021/06/29 08:37:54;;;;;;;;;;;;;;;16.12;100.00;99982.19;5110319;27;19912;-75
2021/06/29 08:40:46;;;;;;;;;;;;;;;16.88;100.00;100000.44;5110359;27;20276;-75
2021/06/29 08:43:26;;;;;;;;;;;;;;;17.43;100.00;99991.63;5089987;28;19916;-75
2021/06/29 08:46:07;;;;;;;;;;;;;;;18.90;100.00;100020.06;5069560;28;19917;-76
2021/06/29 08:48:45;;;;;;;;;;;;;;;19.17;100.00;99977.84;5091825;27;19916;-78
2021/06/29 08:51:25;;;;;;;;;;;;;;;18.13;100.00;99903.06;5084937;28;19917;-78
2021/06/29 08:54:03;;;;;;;;;;;;;;;18.98;100.00;99885.47;5093621;27;20428;-77
2021/06/29 08:56:42;;;;;;;;;;;;;;;20.13;100.00;99885.00;5082812;28;19913;-78
2021/06/29 08:59:21;;;;;;;;;;;;;;;20.26;100.00;99820.44;5106010;27;19916;-78
2021/06/29 09:02:01;;;;;;;;;;;;;;;19.70;100.00;99749.84;5085668;28;19916;-79
2021/06/29 09:04:47;;;;;;;;;;;;;;;20.33;100.00;99717.16;5076734;27;2011639;-79
2021/06/29 09:07:29;;;;;;;;;;;;;;;21.51;100.00;99707.00;5085375;28;19917;-77
2021/06/29 09:10:09;;;;;;;;;;;;;;;20.85;100.00;99594.63;5126072;27;19916;-79
2021/06/29 09:12:51;;;;;;;;;;;;;;;21.65;100.00;99537.72;5084970;28;19920;-80
2021/06/29 09:15:41;;;;;;;;;;;;;;;22.69;100.00;99511.16;5086459;28;19916;-78
2021/06/29 09:18:32;;;;;;;;;;;;;;;20.84;100.00;99448.97;5106401;27;19912;-78
2021/06/29 09:21:13;;;;;;;;;;;;;;;21.11;100.00;99445.19;5085875;28;19939;-79
2021/06/29 09:23:53;;;;;;;;;;;;;;;20.01;100.00;99417.13;5106520;27;19916;-79
2021/06/29 09:26:39;;;;;;;;;;;;;;;20.08;100.00;99422.44;5086374;28;19939;-79
2021/06/29 09:29:32;;;;;;;;;;;;;;;19.12;100.00;99406.28;5128260;27;19964;-83
2021/06/29 09:32:18;;;;;;;;;;;;;;;18.71;100.00;99400.44;5088078;28;19938;-80
2021/06/29 09:35:06;;;;;;;;;;;;;;;20.01;100.00;99432.06;5072992;28;20440;-80
2021/06/29 09:37:47;;;;;;;;;;;;;;;20.68;100.00;99425.91;5083259;27;19939;-80
2021/06/29 09:40:33;;;;;;;;;;;;;;;21.08;100.00;99403.56;5084127;28;19965;-81
2021/06/29 09:43:15;;;;;;;;;;;;;;;20.20;100.00;99368.34;5081619;28;20414;-80
2021/06/29 09:46:02;;;;;;;;;;;;;;;20.18;100.00;99381.44;5084307;28;19966;-79
2021/06/29 09:48:46;;;;;;;;;;;;;;;20.49;100.00;99381.88;5083849;28;19942;-80
2021/06/29 09:51:39;;;;;;;;;;;;;;;20.33;100.00;99359.59;5076824;28;19917;-79
2021/06/29 09:54:21;;;;;;;;;;;;;;;20.38;100.00;99364.59;5079597;28;19912;-79
2021/06/29 09:57:00;;;;;;;;;;;;;;;20.48;100.00;99354.75;5100814;27;19917;-77
2021/06/29 09:59:42;;;;;;;;;;;;;;;20.16;100.00;99359.22;5107156;27;19913;-79
2021/06/29 10:02:29;;;;;;;;;;;;;;;20.07;100.00;99349.97;5086408;28;19942;-75
2021/06/29 10:05:22;;;;;;;;;;;;;;;20.13;100.00;99350.91;5082940;28;19912;-81
2021/06/29 10:08:02;;;;;;;;;;;;;;;19.70;100.00;99358.59;5087479;28;19916;-80
2021/06/29 10:10:47;;;;;;;;;;;;;;;19.58;100.00;99382.28;5072225;28;19912;-81
2021/06/29 10:13:49;;;;;;;;;;;;;;;19.84;100.00;99364.88;5079045;27;19916;-80
2021/06/29 10:16:30;;;;;;;;;;;;;;;20.20;100.00;99374.03;5083368;28;21403;-80
2021/06/29 10:22:10;;;;;;;;;;;;;;;20.13;100.00;99345.22;5087683;28;19916;-78
2021/06/29 10:24:49;;;;;;;;;;;;;;;20.18;100.00;99338.88;5150414;27;20382;-77
2021/06/29 10:27:28;;;;;;;;;;;;;;;20.50;100.00;99343.72;5089906;28;20372;-76
2021/06/29 10:30:22;;;;;;;;;;;;;;;20.41;100.00;99326.75;5108955;27;19919;-79
2021/06/29 10:33:03;;;;;;;;;;;;;;;20.04;100.00;99320.47;5088721;28;19990;-75
2021/06/29 10:35:42;;;;;;;;;;;;;;;20.05;100.00;99305.06;5081914;28;20371;-75
2021/06/29 10:38:23;;;;;;;;;;;;;;;20.21;100.00;99292.50;5073662;28;19928;-76
2021/06/29 10:41:03;;;;;;;;;;;;;;;20.12;100.00;99298.22;5100223;27;20347;-76
2021/06/29 10:43:43;;;;;;;;;;;;;;;19.69;100.00;99294.69;5071516;28;19917;-76
2021/06/29 10:46:29;;;;;;;;;;;;;;;19.61;100.00;99282.13;5077623;28;19940;-76
2021/06/29 10:49:26;;;;;;;;;;;;;;;19.99;100.00;99301.31;5110964;27;19961;-75
2021/06/29 10:52:30;;;;;;;;;;;;;;;20.08;100.00;99286.28;5072855;28;19913;-76
2021/06/29 10:55:18;;;;;;;;;;;;;;;19.90;100.00;99286.41;5151657;27;19926;-75
2021/06/29 10:58:08;;;;;;;;;;;;;;;19.65;100.00;99276.28;5135470;27;20319;-76
2021/06/29 11:01:24;;;;;;;;;;;;;;;19.51;100.00;99279.81;5089201;27;19913;-75
2021/06/29 11:04:04;;;;;;;;;;;;;;;19.90;100.00;99289.22;5083154;28;19912;-75
2021/06/29 11:06:48;;;;;;;;;;;;;;;20.00;100.00;99285.06;5109152;27;19912;-75
2021/06/29 11:09:47;;;;;;;;;;;;;;;20.29;100.00;99280.34;5080690;28;20334;-75
2021/06/29 11:12:26;;;;;;;;;;;;;;;20.52;100.00;99275.91;5076139;28;20323;-76
2021/06/29 11:15:18;;;;;;;;;;;;;;;20.77;100.00;99275.34;5102890;27;19920;-75
2021/06/29 11:18:00;;;;;;;;;;;;;;;20.76;100.00;99262.44;5076689;28;19921;-76
2021/06/29 11:20:49;;;;;;;;;;;;;;;21.01;100.00;99268.34;5071180;28;19916;-75
2021/06/29 11:23:30;;;;;;;;;;;;;;;20.81;100.00;99265.38;5023776;27;1999372;-75
2021/06/29 11:26:11;;;;;;;;;;;;;;;20.62;100.00;99241.28;5089413;28;19913;-75
2021/06/29 11:29:10;;;;;;;;;;;;;;;20.71;100.00;99243.22;5107600;27;20359;-75
2021/06/29 11:31:50;;;;;;;;;;;;;;;20.64;100.00;99244.41;5097176;27;19912;-75
2021/06/29 11:34:28;;;;;;;;;;;;;;;20.42;100.00;99243.97;5100947;27;19965;-75
2021/06/29 11:37:06;;;;;;;;;;;;;;;20.28;100.00;99255.28;5090535;27;19928;-75
2021/06/29 11:39:55;;;;;;;;;;;;;;;20.17;100.00;99244.50;5025669;27;2074937;-76
2021/06/29 11:43:04;;;;;;;;;;;;;;;20.09;100.00;99217.72;5090819;28;19913;-75
2021/06/29 11:46:09;;;;;;;;;;;;;;;19.79;100.00;99229.44;5111027;27;20439;-75
2021/06/29 11:48:51;;;;;;;;;;;;;;;19.56;100.00;99223.28;5093510;27;19913;-75
2021/06/29 11:51:47;;;;;;;;;;;;;;;19.50;100.00;99230.84;5078357;28;19939;-75
2021/06/29 11:54:32;;;;;;;;;;;;;;;19.60;100.00;99231.56;5102702;27;19958;-76
2021/06/29 11:57:14;;;;;;;;;;;;;;;19.42;100.00;99234.50;5075277;28;19940;-75
2021/06/29 11:59:53;;;;;;;;;;;;;;;19.51;100.00;99243.75;5110721;27;19916;-75
2021/06/29 12:02:33;;;;;;;;;;;;;;;19.69;100.00;99240.81;5110678;27;19941;-76
2021/06/29 12:05:17;;;;;;;;;;;;;;;19.50;100.00;99242.19;5108955;27;19974;-75
2021/06/29 12:07:58;;;;;;;;;;;;;;;19.63;100.00;99239.13;5134619;27;19920;-75
2021/06/29 12:10:39;;;;;;;;;;;;;;;19.66;100.00;99238.94;5109618;27;19958;-76
2021/06/29 12:13:29;;;;;;;;;;;;;;;19.99;100.00;99261.59;5110340;27;19938;-76
2021/06/29 12:16:27;;;;;;;;;;;;;;;19.92;100.00;99256.28;5085231;28;19944;-76
2021/06/29 12:19:39;;;;;;;;;;;;;;;19.98;100.00;99242.25;5089842;28;19920;-76
2021/06/29 12:22:31;;;;;;;;;;;;;;;20.18;100.00;99228.25;5109920;27;20321;-76
2021/06/29 12:25:18;;;;;;;;;;;;;;;20.23;100.00;99213.38;5107960;27;19920;-75
2021/06/29 12:28:01;;;;;;;;;;;;;;;20.52;100.00;99224.81;5110806;27;19965;-75
2021/06/29 12:30:42;;;;;;;;;;;;;;;20.95;100.00;99229.75;5088274;28;19917;-75
2021/06/29 12:33:30;;;;;;;;;;;;;;;20.51;100.00;99223.22;5088883;28;19962;-74
2021/06/29 12:36:13;;;;;;;;;;;;;;;20.90;100.00;99227.59;5136462;27;20366;-75
2021/06/29 12:38:53;;;;;;;;;;;;;;;21.01;100.00;99216.44;5084862;28;19943;-75
2021/06/29 12:41:37;;;;;;;;;;;;;;;21.32;100.00;99213.88;5086457;28;19920;-75
2021/06/29 12:44:16;;;;;;;;;;;;;;;21.06;100.00;99207.22;5080967;28;20323;-75
2021/06/29 12:47:11;;;;;;;;;;;;;;;20.60;100.00;99204.06;5090504;28;19939;-75
2021/06/29 12:49:51;;;;;;;;;;;;;;;20.20;100.00;99206.66;5147856;27;19915;-75
2021/06/29 12:52:30;;;;;;;;;;;;;;;20.17;100.00;99201.16;5097972;27;19912;-75
2021/06/29 12:55:12;;;;;;;;;;;;;;;20.27;100.00;99208.31;5146856;27;20282;-75
2021/06/29 12:58:06;;;;;;;;;;;;;;;20.58;100.00;99205.81;5071353;28;19913;-74
2021/06/29 13:00:46;;;;;;;;;;;;;;;20.92;100.00;99197.41;5111338;27;19916;-75
2021/06/29 13:03:27;;;;;;;;;;;;;;;20.88;100.00;99207.41;5090439;28;19912;-75
2021/06/29 13:06:09;;;;;;;;;;;;;;;20.82;100.00;99210.16;5090731;28;19916;-74
2021/06/29 13:08:48;;;;;;;;;;;;;;;20.81;100.00;99210.66;5111254;27;19916;-75
2021/06/29 13:11:27;;;;;;;;;;;;;;;20.78;100.00;99214.47;5090677;28;20319;-74
2021/06/29 13:14:08;;;;;;;;;;;;;;;20.87;100.00;99211.53;5111169;27;19916;-74
2021/06/29 13:16:46;;;;;;;;;;;;;;;20.62;100.00;99206.41;5111243;27;19916;-75
2021/06/29 13:19:25;;;;;;;;;;;;;;;20.71;100.00;99214.84;5111002;27;19916;-75
2021/06/29 13:22:06;;;;;;;;;;;;;;;20.76;100.00;99209.28;5104435;27;20428;-75
2021/06/29 13:24:47;;;;;;;;;;;;;;;20.71;100.00;99215.63;5089682;28;19916;-74
2021/06/29 13:27:30;;;;;;;;;;;;;;;20.79;100.00;99210.34;5079871;28;19998;-74
2021/06/29 13:30:15;;;;;;;;;;;;;;;20.86;100.00;99215.63;5085283;28;19921;-75
2021/06/29 13:33:08;;;;;;;;;;;;;;;20.72;100.00;99220.03;5088393;28;19912;-75
2021/06/29 13:35:53;;;;;;;;;;;;;;;20.44;100.00;99215.09;5107091;27;19916;-74
2021/06/29 13:38:31;;;;;;;;;;;;;;;20.40;100.00;99217.34;5088912;28;19920;-74
2021/06/29 13:41:09;;;;;;;;;;;;;;;20.26;100.00;99218.09;5061001;27;2012635;-75
2021/06/29 13:43:52;;;;;;;;;;;;;;;20.24;100.00;99220.63;5086751;28;19921;-75
2021/06/29 13:46:30;;;;;;;;;;;;;;;20.17;100.00;99224.63;5108746;27;19916;-75
2021/06/29 13:49:20;;;;;;;;;;;;;;;20.11;100.00;99214.41;5088162;28;19965;-75
2021/06/29 13:52:03;;;;;;;;;;;;;;;20.30;100.00;99213.00;5056903;27;2014985;-74
2021/06/29 13:54:43;;;;;;;;;;;;;;;20.26;100.00;99206.75;5051921;28;19920;-74
2021/06/29 13:57:22;;;;;;;;;;;;;;;20.25;100.00;99199.50;5110453;27;19912;-74
2021/06/29 14:00:25;;;;;;;;;;;;;;;20.61;100.00;99208.47;5127128;27;19911;-74
2021/06/29 14:03:04;;;;;;;;;;;;;;;20.88;100.00;99204.56;5110356;27;20321;-74
2021/06/29 14:05:44;;;;;;;;;;;;;;;20.89;100.00;99194.75;5131122;27;19981;-74
2021/06/29 14:08:24;;;;;;;;;;;;;;;20.96;100.00;99188.75;5076928;28;19912;-73
2021/06/29 14:11:02;;;;;;;;;;;;;;;20.73;100.00;99187.53;5110452;27;19916;-74
2021/06/29 14:13:44;;;;;;;;;;;;;;;20.65;100.00;99188.41;5110472;27;20341;-73
2021/06/29 14:16:26;;;;;;;;;;;;;;;20.91;100.00;99186.53;5070746;28;19913;-74
2021/06/29 14:19:05;;;;;;;;;;;;;;;21.37;100.00;99193.28;5090203;28;20330;-74
2021/06/29 14:21:45;;;;;;;;;;;;;;;21.26;100.00;99190.25;5090215;28;19916;-74
2021/06/29 14:24:24;;;;;;;;;;;;;;;20.97;100.00;99176.09;5091726;27;19912;-74
2021/06/29 14:27:03;;;;;;;;;;;;;;;21.29;100.00;99180.75;5132302;27;20309;-74
2021/06/29 14:29:42;;;;;;;;;;;;;;;21.38;100.00;99187.09;5101643;27;19938;-74
2021/06/29 14:32:21;;;;;;;;;;;;;;;21.60;100.00;99172.41;5090161;28;19939;-74
2021/06/29 14:35:00;;;;;;;;;;;;;;;21.52;100.00;99174.13;5110839;27;19912;-74
2021/06/29 14:37:39;;;;;;;;;;;;;;;21.32;100.00;99162.72;5070622;28;19913;-74
2021/06/29 14:40:17;;;;;;;;;;;;;;;21.29;100.00;99166.53;5058306;27;2007503;-78
2021/06/29 14:42:57;;;;;;;;;;;;;;;21.24;100.00;99167.22;5117564;27;20028;-74